Time;durP1;ratioP1;P1;durP2;ratioP2;P2;SDS_P1;SDS_P2;PMS_P1;PMS_P2;Temp;Humidity;BMP_temperature;BMP_pressure;BME280_temperature;BME280_humidity;BME280_pressure;Samples;Min_cycle;Max_cycle;Signal;HPM_P1;HPM_P2
2022/01/17 00:01:30;;;;;;;;;;;;;;;;;;6199151;23;19920;-96
2022/01/17 00:03:56;;;;;;;;;;;;;;;;;;6198526;23;19920;-96
2022/01/17 00:06:23;;;;;;;;;;;;;;;;;;6198458;23;19926;-96
2022/01/17 00:08:49;;;;;;;;;;;;;;;;;;6198217;23;19928;-96
2022/01/17 00:11:16;;;;;;;;;;;;;;;;;;6197735;23;19924;-96
2022/01/17 00:13:42;;;;;;;;;;;;;;;;;;6196675;23;19940;-96
2022/01/17 00:16:12;;;;;;;;;;;;;;;;;;6197197;23;19956;-96
2022/01/17 00:19:05;;;;;;;;;;;;;;;;;;6199550;23;19924;-96
2022/01/17 00:21:30;;;;;;;;;;;;;;;;;;6199846;23;19940;-96
2022/01/17 00:24:04;;;;;;;;;;;;;;;;;;6200823;23;19921;-96
2022/01/17 00:26:34;;;;;;;;;;;;;;;;;;6199877;23;19943;-96
2022/01/17 00:29:01;;;;;;;;;;;;;;;;;;6198292;23;19926;-96
2022/01/17 00:31:27;;;;;;;;;;;;;;;;;;6199116;23;19968;-96
2022/01/17 00:33:54;;;;;;;;;;;;;;;;;;6199235;23;19960;-96
2022/01/17 00:36:20;;;;;;;;;;;;;;;;;;6198976;23;19920;-96
2022/01/17 00:38:46;;;;;;;;;;;;;;;;;;6200273;23;19920;-96
2022/01/17 00:41:13;;;;;;;;;;;;;;;;;;6200975;23;19968;-96
2022/01/17 00:43:39;;;;;;;;;;;;;;;;;;6200515;23;19987;-96
2022/01/17 00:46:06;;;;;;;;;;;;;;;;;;6199487;23;19969;-96
2022/01/17 00:48:32;;;;;;;;;;;;;;;;;;6201521;23;19968;-96
2022/01/17 00:50:59;;;;;;;;;;;;;;;;;;6200518;23;19968;-96
2022/01/17 00:53:25;;;;;;;;;;;;;;;;;;6199586;23;19944;-96
2022/01/17 00:55:51;;;;;;;;;;;;;;;;;;6197805;23;19964;-96
2022/01/17 00:58:18;;;;;;;;;;;;;;;;;;6199356;23;19920;-96
2022/01/17 01:00:45;;;;;;;;;;;;;;;;;;6199755;23;19931;-96
2022/01/17 01:03:11;;;;;;;;;;;;;;;;;;6199237;23;19921;-96
2022/01/17 01:05:38;;;;;;;;;;;;;;;;;;6199778;23;19948;-96
2022/01/17 01:08:04;;;;;;;;;;;;;;;;;;6199062;23;19920;-96
2022/01/17 01:10:31;;;;;;;;;;;;;;;;;;6199228;23;19920;-96
2022/01/17 01:12:57;;;;;;;;;;;;;;;;;;6199327;23;19940;-96
2022/01/17 01:15:34;;;;;;;;;;;;;;;;;;6202072;23;19930;-96
2022/01/17 01:18:02;;;;;;;;;;;;;;;;;;6201003;23;19920;-96
2022/01/17 01:20:52;;;;;;;;;;;;;;;;;;6198264;23;19926;-96
2022/01/17 01:28:47;;;;;;;;;;;;;;;;;;6198234;23;19923;-96
2022/01/17 01:31:22;;;;;;;;;;;;;;;;;;6198111;23;19942;-96
2022/01/17 01:33:53;;;;;;;;;;;;;;;;;;6198659;23;19947;-96
2022/01/17 01:36:24;;;;;;;;;;;;;;;;;;6198979;23;19964;-96
2022/01/17 01:38:50;;;;;;;;;;;;;;;;;;6197994;23;19928;-96
2022/01/17 01:41:16;;;;;;;;;;;;;;;;;;6197811;23;19920;-96
2022/01/17 01:43:43;;;;;;;;;;;;;;;;;;6197188;23;19949;-96
2022/01/17 01:46:11;;;;;;;;;;;;;;;;;;6198361;23;19920;-96
2022/01/17 01:48:37;;;;;;;;;;;;;;;;;;6199587;23;19930;-96
2022/01/17 01:51:03;;;;;;;;;;;;;;;;;;6200391;23;19920;-96
2022/01/17 01:53:30;;;;;;;;;;;;;;;;;;6199274;23;19920;-96
2022/01/17 01:55:56;;;;;;;;;;;;;;;;;;6200510;23;19920;-96
2022/01/17 01:58:22;;;;;;;;;;;;;;;;;;6201137;23;20000;-96
2022/01/17 02:00:49;;;;;;;;;;;;;;;;;;6200307;23;19951;-96
2022/01/17 02:03:15;;;;;;;;;;;;;;;;;;6199329;23;19926;-96
2022/01/17 02:05:42;;;;;;;;;;;;;;;;;;6200268;23;19931;-96
2022/01/17 02:08:08;;;;;;;;;;;;;;;;;;6199195;23;19927;-96
2022/01/17 02:10:35;;;;;;;;;;;;;;;;;;6198440;23;19920;-96
2022/01/17 02:13:01;;;;;;;;;;;;;;;;;;6198583;23;19931;-96
2022/01/17 02:15:28;;;;;;;;;;;;;;;;;;6199415;23;19968;-96
2022/01/17 02:17:56;;;;;;;;;;;;;;;;;;6200342;23;20016;-96
2022/01/17 02:20:23;;;;;;;;;;;;;;;;;;6198901;23;19927;-96
2022/01/17 02:22:49;;;;;;;;;;;;;;;;;;6197931;23;19920;-96
2022/01/17 02:25:15;;;;;;;;;;;;;;;;;;6198785;23;19926;-96
2022/01/17 02:27:42;;;;;;;;;;;;;;;;;;6199229;23;19968;-96
2022/01/17 02:30:09;;;;;;;;;;;;;;;;;;6199484;23;19921;-96
2022/01/17 02:32:36;;;;;;;;;;;;;;;;;;6201121;23;19946;-96
2022/01/17 02:35:03;;;;;;;;;;;;;;;;;;6202304;23;19920;-96
2022/01/17 02:37:29;;;;;;;;;;;;;;;;;;6202157;23;19999;-96
2022/01/17 02:39:56;;;;;;;;;;;;;;;;;;6199937;23;19972;-96
2022/01/17 02:42:22;;;;;;;;;;;;;;;;;;6199090;23;19920;-96
2022/01/17 02:44:50;;;;;;;;;;;;;;;;;;6199038;23;19936;-96
2022/01/17 02:47:17;;;;;;;;;;;;;;;;;;6198384;23;19928;-96
2022/01/17 02:49:43;;;;;;;;;;;;;;;;;;6199224;23;19987;-96
2022/01/17 02:52:09;;;;;;;;;;;;;;;;;;6199030;23;19921;-96
2022/01/17 02:54:36;;;;;;;;;;;;;;;;;;6200477;23;19991;-96
2022/01/17 02:57:03;;;;;;;;;;;;;;;;;;6201834;23;19976;-96
2022/01/17 03:02:11;;;;;;;;;;;;;;;;;;6206657;23;19936;-96
2022/01/17 03:04:37;;;;;;;;;;;;;;;;;;6206459;23;19921;-96
2022/01/17 03:07:07;;;;;;;;;;;;;;;;;;6205831;23;19920;-96
2022/01/17 03:09:45;;;;;;;;;;;;;;;;;;6181360;23;19920;-96
2022/01/17 03:12:11;;;;;;;;;;;;;;;;;;6205708;23;19920;-96
2022/01/17 03:14:39;;;;;;;;;;;;;;;;;;6206047;23;19931;-96
2022/01/17 03:19:51;;;;;;;;;;;;;;;;;;6207587;23;19909;-96
2022/01/17 03:22:19;;;;;;;;;;;;;;;;;;6209824;23;19914;-96
2022/01/17 03:24:46;;;;;;;;;;;;;;;;;;6186232;23;19920;-96
2022/01/17 03:30:03;;;;;;;;;;;;;;;;;;6201517;23;19916;-96
2022/01/17 03:32:30;;;;;;;;;;;;;;;;;;6206417;23;19921;-96
2022/01/17 03:34:57;;;;;;;;;;;;;;;;;;6206017;23;19920;-96
2022/01/17 03:37:23;;;;;;;;;;;;;;;;;;6205674;23;19944;-96
2022/01/17 03:39:50;;;;;;;;;;;;;;;;;;6203014;23;19924;-96
2022/01/17 03:42:18;;;;;;;;;;;;;;;;;;6202692;23;19927;-96
2022/01/17 03:44:55;;;;;;;;;;;;;;;;;;6207440;23;19926;-96
2022/01/17 03:47:25;;;;;;;;;;;;;;;;;;6208970;23;20005;-96
2022/01/17 03:49:52;;;;;;;;;;;;;;;;;;6209812;23;19937;-96
2022/01/17 03:52:19;;;;;;;;;;;;;;;;;;6204661;23;19940;-96
2022/01/17 03:54:46;;;;;;;;;;;;;;;;;;6201905;23;20298;-96
2022/01/17 03:57:12;;;;;;;;;;;;;;;;;;6199751;23;19927;-96
2022/01/17 03:59:38;;;;;;;;;;;;;;;;;;6199924;23;19920;-96
2022/01/17 04:02:05;;;;;;;;;;;;;;;;;;6199348;23;19920;-96
2022/01/17 04:04:32;;;;;;;;;;;;;;;;;;6198900;23;19920;-96
2022/01/17 04:06:58;;;;;;;;;;;;;;;;;;6198200;23;19968;-96
2022/01/17 04:09:24;;;;;;;;;;;;;;;;;;6197553;23;20319;-96
2022/01/17 04:11:51;;;;;;;;;;;;;;;;;;6197568;23;19927;-96
2022/01/17 04:14:17;;;;;;;;;;;;;;;;;;6197737;23;19925;-96
2022/01/17 04:16:44;;;;;;;;;;;;;;;;;;6197086;23;19963;-96
2022/01/17 04:19:11;;;;;;;;;;;;;;;;;;6197814;23;20303;-96
2022/01/17 04:21:38;;;;;;;;;;;;;;;;;;6198785;23;19927;-96
2022/01/17 04:24:04;;;;;;;;;;;;;;;;;;6197942;23;20007;-96
2022/01/17 04:26:32;;;;;;;;;;;;;;;;;;6198102;23;19924;-96
2022/01/17 04:28:58;;;;;;;;;;;;;;;;;;6195496;23;19936;-95
2022/01/17 04:31:25;;;;;;;;;;;;;;;;;;6195434;23;19951;-96
2022/01/17 04:33:51;;;;;;;;;;;;;;;;;;6195654;23;19924;-96
2022/01/17 04:36:17;;;;;;;;;;;;;;;;;;6194928;23;20353;-96
2022/01/17 04:38:44;;;;;;;;;;;;;;;;;;6196882;23;19928;-96
2022/01/17 04:41:15;;;;;;;;;;;;;;;;;;6196836;23;19928;-96
2022/01/17 04:45:07;;;;;;;;;;;;;;;;;;6169744;23;19921;-96
2022/01/17 04:46:44;;;;;;;;;;;;;;;;;;6195609;23;19987;-96
2022/01/17 04:49:10;;;;;;;;;;;;;;;;;;6196783;23;19932;-95
2022/01/17 04:51:37;;;;;;;;;;;;;;;;;;6196366;23;19920;-95
2022/01/17 04:54:23;;;;;;;;;;;;;;;;;;6195894;23;19973;-96
2022/01/17 04:56:50;;;;;;;;;;;;;;;;;;6167861;23;19931;-95
2022/01/17 04:59:16;;;;;;;;;;;;;;;;;;6193009;23;20402;-95
2022/01/17 05:01:42;;;;;;;;;;;;;;;;;;6193953;23;19920;-95
2022/01/17 05:04:08;;;;;;;;;;;;;;;;;;6193704;23;19924;-94
2022/01/17 05:06:35;;;;;;;;;;;;;;;;;;6193787;23;19924;-95
2022/01/17 05:09:01;;;;;;;;;;;;;;;;;;6195058;23;19920;-94
2022/01/17 05:11:29;;;;;;;;;;;;;;;;;;6195807;23;19952;-94
2022/01/17 05:13:56;;;;;;;;;;;;;;;;;;6192586;23;19955;-94
2022/01/17 05:16:30;;;;;;;;;;;;;;;;;;6189286;23;19927;-94
2022/01/17 05:21:40;;;;;;;;;;;;;;;;;;6193251;23;19915;-95
2022/01/17 05:24:06;;;;;;;;;;;;;;;;;;6195456;23;19947;-95
2022/01/17 05:26:32;;;;;;;;;;;;;;;;;;6195826;23;20306;-94
2022/01/17 05:28:58;;;;;;;;;;;;;;;;;;6194955;23;19924;-93
2022/01/17 05:31:25;;;;;;;;;;;;;;;;;;6194439;23;19920;-95
2022/01/17 05:33:51;;;;;;;;;;;;;;;;;;6195346;23;19924;-94
2022/01/17 05:36:18;;;;;;;;;;;;;;;;;;6195203;23;20033;-94
2022/01/17 05:38:44;;;;;;;;;;;;;;;;;;6196069;23;19929;-95
2022/01/17 05:41:10;;;;;;;;;;;;;;;;;;6194236;23;19924;-94
2022/01/17 05:43:37;;;;;;;;;;;;;;;;;;6168926;23;20362;-93
2022/01/17 05:46:03;;;;;;;;;;;;;;;;;;6194976;23;19928;-94
2022/01/17 05:48:29;;;;;;;;;;;;;;;;;;6168902;23;19920;-94
2022/01/17 05:50:56;;;;;;;;;;;;;;;;;;6195274;23;19920;-95
2022/01/17 05:53:22;;;;;;;;;;;;;;;;;;6195353;23;19970;-94
2022/01/17 05:55:48;;;;;;;;;;;;;;;;;;6168276;23;19927;-94
2022/01/17 05:58:14;;;;;;;;;;;;;;;;;;6194980;23;19979;-93
2022/01/17 06:00:41;;;;;;;;;;;;;;;;;;6195035;23;19920;-93
2022/01/17 06:03:07;;;;;;;;;;;;;;;;;;6194654;23;19924;-94
2022/01/17 06:05:33;;;;;;;;;;;;;;;;;;6194166;23;19921;-94
2022/01/17 06:07:59;;;;;;;;;;;;;;;;;;6193622;23;19924;-94
2022/01/17 06:10:26;;;;;;;;;;;;;;;;;;6194002;23;19925;-94
2022/01/17 06:12:52;;;;;;;;;;;;;;;;;;6194179;23;20359;-93
2022/01/17 06:15:19;;;;;;;;;;;;;;;;;;6194882;23;20639;-94
2022/01/17 06:17:45;;;;;;;;;;;;;;;;;;6194968;23;19944;-93
2022/01/17 06:20:11;;;;;;;;;;;;;;;;;;6194875;23;19920;-94
2022/01/17 06:22:37;;;;;;;;;;;;;;;;;;6194917;23;19924;-94
2022/01/17 06:25:04;;;;;;;;;;;;;;;;;;6193277;23;19920;-93
2022/01/17 06:27:30;;;;;;;;;;;;;;;;;;6194157;23;20338;-93
2022/01/17 06:29:57;;;;;;;;;;;;;;;;;;6195216;23;20299;-94
2022/01/17 06:32:23;;;;;;;;;;;;;;;;;;6194816;23;19928;-93
2022/01/17 06:34:49;;;;;;;;;;;;;;;;;;6195129;23;20453;-94
2022/01/17 06:37:16;;;;;;;;;;;;;;;;;;6195586;23;20302;-93
2022/01/17 06:39:42;;;;;;;;;;;;;;;;;;6196301;23;19924;-94
2022/01/17 06:42:08;;;;;;;;;;;;;;;;;;6196635;23;19924;-92
2022/01/17 06:44:34;;;;;;;;;;;;;;;;;;6194055;23;20030;-93
2022/01/17 06:47:00;;;;;;;;;;;;;;;;;;6196146;23;19991;-93
2022/01/17 06:49:27;;;;;;;;;;;;;;;;;;6196280;23;19924;-94
2022/01/17 06:51:53;;;;;;;;;;;;;;;;;;6196835;23;19951;-93
2022/01/17 06:54:19;;;;;;;;;;;;;;;;;;6195481;23;19971;-94
2022/01/17 06:56:45;;;;;;;;;;;;;;;;;;6195959;23;19924;-93
2022/01/17 06:59:12;;;;;;;;;;;;;;;;;;6169705;23;19931;-94
2022/01/17 07:01:38;;;;;;;;;;;;;;;;;;6196891;23;19920;-92
2022/01/17 07:04:05;;;;;;;;;;;;;;;;;;6195770;23;19935;-93
2022/01/17 07:06:31;;;;;;;;;;;;;;;;;;6195456;23;19961;-93
2022/01/17 07:08:57;;;;;;;;;;;;;;;;;;6195895;23;19924;-94
2022/01/17 07:11:23;;;;;;;;;;;;;;;;;;6195901;23;19944;-94
2022/01/17 07:13:50;;;;;;;;;;;;;;;;;;6194039;23;19921;-94
2022/01/17 07:16:16;;;;;;;;;;;;;;;;;;6193434;23;19920;-93
2022/01/17 07:18:42;;;;;;;;;;;;;;;;;;6195070;23;19920;-93
2022/01/17 07:21:08;;;;;;;;;;;;;;;;;;6195190;23;19944;-94
2022/01/17 07:23:35;;;;;;;;;;;;;;;;;;6196385;23;19929;-94
2022/01/17 07:26:01;;;;;;;;;;;;;;;;;;6191236;23;19948;-94
2022/01/17 07:28:28;;;;;;;;;;;;;;;;;;6192109;23;19952;-94
2022/01/17 07:30:54;;;;;;;;;;;;;;;;;;6196750;23;19920;-94
2022/01/17 07:33:21;;;;;;;;;;;;;;;;;;6194682;23;19924;-95
2022/01/17 07:35:48;;;;;;;;;;;;;;;;;;6170389;23;19955;-95
2022/01/17 07:38:15;;;;;;;;;;;;;;;;;;6196427;23;19932;-95
2022/01/17 07:40:43;;;;;;;;;;;;;;;;;;6195077;23;19969;-96
2022/01/17 07:43:09;;;;;;;;;;;;;;;;;;6195341;23;19928;-96
2022/01/17 07:45:36;;;;;;;;;;;;;;;;;;6194774;23;20517;-96
2022/01/17 07:48:22;;;;;;;;;;;;;;;;;;6195086;23;19920;-95
2022/01/17 07:50:48;;;;;;;;;;;;;;;;;;6195697;23;19951;-96
2022/01/17 07:53:16;;;;;;;;;;;;;;;;;;6196451;23;19931;-96
2022/01/17 07:55:42;;;;;;;;;;;;;;;;;;6196988;23;19944;-95
2022/01/17 07:58:09;;;;;;;;;;;;;;;;;;6199259;23;19959;-96
2022/01/17 08:00:35;;;;;;;;;;;;;;;;;;6198132;23;19920;-96
2022/01/17 08:03:03;;;;;;;;;;;;;;;;;;6197772;23;19928;-96
2022/01/17 08:05:30;;;;;;;;;;;;;;;;;;6195597;23;20294;-96
2022/01/17 08:07:56;;;;;;;;;;;;;;;;;;6196661;23;19931;-96
2022/01/17 08:10:22;;;;;;;;;;;;;;;;;;6197891;23;19920;-96
2022/01/17 08:12:49;;;;;;;;;;;;;;;;;;6197283;23;19924;-96
2022/01/17 08:15:15;;;;;;;;;;;;;;;;;;6191789;23;19924;-96
2022/01/17 08:17:41;;;;;;;;;;;;;;;;;;6191366;23;19924;-96
2022/01/17 08:20:07;;;;;;;;;;;;;;;;;;6192924;23;19924;-95
2022/01/17 08:22:34;;;;;;;;;;;;;;;;;;6196175;23;19924;-96
2022/01/17 08:25:00;;;;;;;;;;;;;;;;;;6197339;23;19920;-96
2022/01/17 08:27:27;;;;;;;;;;;;;;;;;;6196736;23;19931;-94
2022/01/17 08:29:54;;;;;;;;;;;;;;;;;;6191659;23;19927;-96
2022/01/17 08:32:20;;;;;;;;;;;;;;;;;;6190370;23;19980;-95
2022/01/17 08:34:47;;;;;;;;;;;;;;;;;;6192047;23;19920;-95
2022/01/17 08:37:13;;;;;;;;;;;;;;;;;;6191226;23;19951;-94
2022/01/17 08:39:39;;;;;;;;;;;;;;;;;;6191771;23;20294;-94
2022/01/17 08:42:10;;;;;;;;;;;;;;;;;;6190555;23;20316;-94
2022/01/17 08:44:36;;;;;;;;;;;;;;;;;;6191287;23;19924;-94
2022/01/17 08:47:03;;;;;;;;;;;;;;;;;;6167516;23;19931;-94
2022/01/17 08:49:29;;;;;;;;;;;;;;;;;;6194358;23;19924;-95
2022/01/17 08:51:55;;;;;;;;;;;;;;;;;;6194072;23;19928;-94
2022/01/17 08:54:22;;;;;;;;;;;;;;;;;;6195575;23;19948;-94
2022/01/17 08:56:48;;;;;;;;;;;;;;;;;;6195651;23;19920;-94
2022/01/17 08:59:14;;;;;;;;;;;;;;;;;;6193006;23;20321;-94
2022/01/17 09:01:40;;;;;;;;;;;;;;;;;;6191828;23;19943;-94
2022/01/17 09:04:07;;;;;;;;;;;;;;;;;;6192636;23;19931;-93
2022/01/17 09:06:33;;;;;;;;;;;;;;;;;;6193237;23;19944;-93
2022/01/17 09:08:59;;;;;;;;;;;;;;;;;;6194291;23;19920;-94
2022/01/17 09:11:26;;;;;;;;;;;;;;;;;;6193910;23;19924;-94
2022/01/17 09:13:52;;;;;;;;;;;;;;;;;;6194051;23;19952;-94
2022/01/17 09:16:18;;;;;;;;;;;;;;;;;;6193578;23;19951;-93
2022/01/17 09:18:45;;;;;;;;;;;;;;;;;;6195486;23;19921;-94
2022/01/17 09:21:11;;;;;;;;;;;;;;;;;;6195369;23;19920;-92
2022/01/17 09:23:38;;;;;;;;;;;;;;;;;;6194996;23;19952;-93
2022/01/17 09:26:05;;;;;;;;;;;;;;;;;;6194102;23;19924;-94
2022/01/17 09:28:31;;;;;;;;;;;;;;;;;;6193985;23;19928;-94
2022/01/17 09:30:57;;;;;;;;;;;;;;;;;;6194489;23;19925;-94
2022/01/17 09:33:23;;;;;;;;;;;;;;;;;;6194840;23;19976;-94
2022/01/17 09:35:50;;;;;;;;;;;;;;;;;;6195563;23;19920;-94
2022/01/17 09:38:18;;;;;;;;;;;;;;;;;;6195543;23;19924;-93
2022/01/17 09:40:44;;;;;;;;;;;;;;;;;;6193159;23;19928;-94
2022/01/17 09:43:10;;;;;;;;;;;;;;;;;;6194203;23;20393;-94
2022/01/17 09:45:36;;;;;;;;;;;;;;;;;;6190812;23;20385;-94
2022/01/17 09:48:05;;;;;;;;;;;;;;;;;;6194185;23;19991;-94
2022/01/17 09:50:45;;;;;;;;;;;;;;;;;;6194739;23;19924;-94
2022/01/17 09:53:12;;;;;;;;;;;;;;;;;;6194874;23;19920;-94
2022/01/17 09:55:38;;;;;;;;;;;;;;;;;;6193510;23;19945;-93
2022/01/17 09:58:04;;;;;;;;;;;;;;;;;;6192625;23;19920;-95
2022/01/17 10:00:30;;;;;;;;;;;;;;;;;;6192533;23;20703;-94
2022/01/17 10:02:57;;;;;;;;;;;;;;;;;;6192734;23;20131;-94
2022/01/17 10:05:24;;;;;;;;;;;;;;;;;;6193133;23;19925;-95
2022/01/17 10:07:50;;;;;;;;;;;;;;;;;;6192976;23;19931;-94
2022/01/17 10:10:17;;;;;;;;;;;;;;;;;;6191264;23;19924;-94
2022/01/17 10:12:43;;;;;;;;;;;;;;;;;;6193076;23;19924;-93
2022/01/17 10:15:15;;;;;;;;;;;;;;;;;;6192808;23;19924;-96
2022/01/17 10:17:41;;;;;;;;;;;;;;;;;;6192982;23;19928;-94
2022/01/17 10:20:08;;;;;;;;;;;;;;;;;;6193296;23;19987;-94
2022/01/17 10:22:44;;;;;;;;;;;;;;;;;;6193174;23;19924;-94
2022/01/17 10:25:23;;;;;;;;;;;;;;;;;;6192819;23;19924;-94
2022/01/17 10:28:22;;;;;;;;;;;;;;;;;;6193897;23;19950;-94
2022/01/17 10:36:10;;;;;;;;;;;;;;;;;;6192403;23;19915;-94
2022/01/17 10:38:36;;;;;;;;;;;;;;;;;;6194345;23;19924;-94
2022/01/17 10:41:04;;;;;;;;;;;;;;;;;;6194049;23;19920;-94
2022/01/17 10:43:34;;;;;;;;;;;;;;;;;;6193872;23;20472;-94
2022/01/17 10:46:00;;;;;;;;;;;;;;;;;;6192889;23;19924;-94
2022/01/17 10:48:27;;;;;;;;;;;;;;;;;;6194146;23;19944;-93
2022/01/17 10:50:54;;;;;;;;;;;;;;;;;;6193808;23;19936;-93
2022/01/17 10:53:20;;;;;;;;;;;;;;;;;;6194692;23;19944;-94
2022/01/17 10:55:48;;;;;;;;;;;;;;;;;;6193670;23;19924;-93
2022/01/17 10:58:17;;;;;;;;;;;;;;;;;;6194588;23;19920;-94
2022/01/17 11:00:43;;;;;;;;;;;;;;;;;;6194108;23;19944;-94
2022/01/17 11:03:09;;;;;;;;;;;;;;;;;;6195112;23;19920;-94
2022/01/17 11:05:35;;;;;;;;;;;;;;;;;;6194598;23;19924;-94
2022/01/17 11:08:02;;;;;;;;;;;;;;;;;;6193086;23;19924;-94
2022/01/17 11:10:28;;;;;;;;;;;;;;;;;;6194259;23;19924;-95
2022/01/17 11:12:55;;;;;;;;;;;;;;;;;;6195571;23;20507;-95
2022/01/17 11:15:21;;;;;;;;;;;;;;;;;;6194679;23;20335;-95
2022/01/17 11:17:50;;;;;;;;;;;;;;;;;;6196415;23;19928;-95
2022/01/17 11:20:17;;;;;;;;;;;;;;;;;;6197121;23;20443;-95
2022/01/17 11:22:43;;;;;;;;;;;;;;;;;;6198818;23;19961;-96
2022/01/17 11:25:09;;;;;;;;;;;;;;;;;;6198216;23;19921;-96
2022/01/17 11:27:36;;;;;;;;;;;;;;;;;;6199399;23;19987;-95
2022/01/17 11:30:02;;;;;;;;;;;;;;;;;;6194716;23;19920;-96
2022/01/17 11:32:28;;;;;;;;;;;;;;;;;;6199727;23;19927;-95
2022/01/17 11:34:54;;;;;;;;;;;;;;;;;;6197082;23;19955;-95
2022/01/17 11:37:21;;;;;;;;;;;;;;;;;;6197053;23;19947;-94
2022/01/17 11:39:47;;;;;;;;;;;;;;;;;;6196944;23;19920;-96
2022/01/17 11:42:13;;;;;;;;;;;;;;;;;;6195570;23;20823;-94
2022/01/17 11:44:39;;;;;;;;;;;;;;;;;;6193391;23;19999;-95
2022/01/17 11:47:06;;;;;;;;;;;;;;;;;;6192592;23;19979;-95
2022/01/17 11:49:35;;;;;;;;;;;;;;;;;;6195662;23;19980;-95
2022/01/17 11:52:01;;;;;;;;;;;;;;;;;;6195986;23;19920;-96
2022/01/17 11:54:27;;;;;;;;;;;;;;;;;;6196579;23;19924;-95
2022/01/17 11:56:54;;;;;;;;;;;;;;;;;;6197469;23;19924;-95
2022/01/17 11:59:20;;;;;;;;;;;;;;;;;;6196378;23;20011;-96
2022/01/17 12:01:46;;;;;;;;;;;;;;;;;;6196322;23;19924;-96
2022/01/17 12:04:12;;;;;;;;;;;;;;;;;;6196038;23;19928;-95
2022/01/17 12:06:39;;;;;;;;;;;;;;;;;;6199128;23;19916;-96
2022/01/17 12:09:05;;;;;;;;;;;;;;;;;;6198168;23;19920;-96
2022/01/17 12:11:31;;;;;;;;;;;;;;;;;;6199229;23;19920;-96
2022/01/17 12:14:02;;;;;;;;;;;;;;;;;;6195685;23;19920;-96
2022/01/17 12:16:31;;;;;;;;;;;;;;;;;;6198265;23;19924;-95
2022/01/17 12:18:57;;;;;;;;;;;;;;;;;;6197774;23;19925;-96
2022/01/17 12:21:24;;;;;;;;;;;;;;;;;;6202389;23;19931;-96
2022/01/17 12:23:50;;;;;;;;;;;;;;;;;;6200918;23;19931;-96
2022/01/17 12:26:17;;;;;;;;;;;;;;;;;;6196221;23;20382;-96
2022/01/17 12:28:43;;;;;;;;;;;;;;;;;;6196115;23;19944;-96
2022/01/17 12:31:09;;;;;;;;;;;;;;;;;;6198728;23;19986;-95
2022/01/17 12:33:37;;;;;;;;;;;;;;;;;;6200431;23;19920;-96
2022/01/17 12:36:03;;;;;;;;;;;;;;;;;;6196991;23;19955;-96
2022/01/17 12:38:30;;;;;;;;;;;;;;;;;;6195962;23;19920;-95
2022/01/17 12:40:56;;;;;;;;;;;;;;;;;;6195673;23;19928;-96
2022/01/17 12:43:24;;;;;;;;;;;;;;;;;;6201403;23;19964;-96
2022/01/17 12:45:51;;;;;;;;;;;;;;;;;;6202894;23;19968;-96
2022/01/17 12:48:17;;;;;;;;;;;;;;;;;;6193984;23;19920;-96
2022/01/17 12:50:43;;;;;;;;;;;;;;;;;;6195430;23;19963;-96
2022/01/17 12:53:10;;;;;;;;;;;;;;;;;;6199523;23;19924;-96
2022/01/17 12:55:37;;;;;;;;;;;;;;;;;;6198665;23;19920;-96
2022/01/17 12:58:03;;;;;;;;;;;;;;;;;;6197491;23;19924;-96
2022/01/17 13:00:29;;;;;;;;;;;;;;;;;;6198935;23;19930;-96
2022/01/17 13:02:56;;;;;;;;;;;;;;;;;;6196995;23;19920;-96
2022/01/17 13:05:22;;;;;;;;;;;;;;;;;;6196419;23;19955;-96
2022/01/17 13:07:48;;;;;;;;;;;;;;;;;;6194972;23;19925;-96
2022/01/17 13:10:15;;;;;;;;;;;;;;;;;;6195631;23;19944;-96
2022/01/17 13:12:42;;;;;;;;;;;;;;;;;;6194677;23;19924;-95
2022/01/17 13:15:08;;;;;;;;;;;;;;;;;;6196240;23;19931;-95
2022/01/17 13:17:35;;;;;;;;;;;;;;;;;;6195786;23;19982;-96
2022/01/17 13:20:01;;;;;;;;;;;;;;;;;;6188905;23;19924;-96
2022/01/17 13:22:30;;;;;;;;;;;;;;;;;;6191911;23;19947;-96
2022/01/17 13:25:03;;;;;;;;;;;;;;;;;;6193396;23;19931;-96
2022/01/17 13:27:31;;;;;;;;;;;;;;;;;;6191546;23;19921;-96
2022/01/17 13:29:58;;;;;;;;;;;;;;;;;;6198331;23;19908;-96
2022/01/17 13:32:24;;;;;;;;;;;;;;;;;;6190888;23;19945;-96
2022/01/17 13:34:50;;;;;;;;;;;;;;;;;;6190919;23;19924;-96
2022/01/17 13:37:16;;;;;;;;;;;;;;;;;;6190871;23;19935;-95
2022/01/17 13:47:28;;;;;;;;;;;;;;;;;;6192501;23;20309;-96
2022/01/17 13:49:54;;;;;;;;;;;;;;;;;;6197577;23;19924;-96
2022/01/17 14:00:14;;;;;;;;;;;;;;;;;;6196069;23;19915;-96
2022/01/17 14:02:41;;;;;;;;;;;;;;;;;;6195865;23;20027;-96
2022/01/17 14:05:10;;;;;;;;;;;;;;;;;;6196559;23;19924;-96
2022/01/17 14:07:36;;;;;;;;;;;;;;;;;;6198103;23;19924;-96
2022/01/17 14:10:03;;;;;;;;;;;;;;;;;;6204669;23;19943;-96
2022/01/17 14:12:30;;;;;;;;;;;;;;;;;;6205281;23;19921;-96
2022/01/17 14:14:57;;;;;;;;;;;;;;;;;;6196389;23;20011;-96
2022/01/17 14:17:24;;;;;;;;;;;;;;;;;;6195318;23;20405;-96
2022/01/17 14:19:50;;;;;;;;;;;;;;;;;;6194189;23;19999;-96
2022/01/17 14:22:17;;;;;;;;;;;;;;;;;;6192429;23;19924;-96
2022/01/17 14:24:44;;;;;;;;;;;;;;;;;;6195376;23;20355;-96
2022/01/17 14:27:14;;;;;;;;;;;;;;;;;;6197671;23;19904;-96
2022/01/17 14:29:44;;;;;;;;;;;;;;;;;;6177274;23;19976;-96
2022/01/17 14:32:10;;;;;;;;;;;;;;;;;;6199250;23;19940;-96
2022/01/17 14:34:37;;;;;;;;;;;;;;;;;;6196347;23;19921;-96
2022/01/17 14:37:03;;;;;;;;;;;;;;;;;;6193990;23;19968;-96
2022/01/17 14:39:30;;;;;;;;;;;;;;;;;;6195389;23;19924;-96
2022/01/17 14:41:56;;;;;;;;;;;;;;;;;;6195673;23;20003;-96
2022/01/17 14:44:23;;;;;;;;;;;;;;;;;;6193882;23;19944;-96
2022/01/17 14:46:49;;;;;;;;;;;;;;;;;;6166735;23;19920;-96
2022/01/17 14:49:15;;;;;;;;;;;;;;;;;;6193965;23;19924;-96
2022/01/17 14:59:51;;;;;;;;;;;;;;;;;;6198852;23;19927;-96
2022/01/17 15:02:26;;;;;;;;;;;;;;;;;;6195610;23;19991;-96
2022/01/17 15:04:53;;;;;;;;;;;;;;;;;;6195783;23;19947;-96
2022/01/17 15:07:19;;;;;;;;;;;;;;;;;;6196283;23;21152;-96
2022/01/17 15:09:48;;;;;;;;;;;;;;;;;;6194788;23;19924;-96
2022/01/17 15:17:33;;;;;;;;;;;;;;;;;;6203973;23;19930;-96
2022/01/17 15:19:59;;;;;;;;;;;;;;;;;;6196382;23;19924;-96
2022/01/17 15:22:25;;;;;;;;;;;;;;;;;;6197130;23;19925;-96
2022/01/17 15:24:51;;;;;;;;;;;;;;;;;;6196813;23;20464;-96
2022/01/17 15:27:18;;;;;;;;;;;;;;;;;;6196480;23;19924;-96
2022/01/17 15:29:44;;;;;;;;;;;;;;;;;;6198246;23;19924;-96
2022/01/17 15:32:11;;;;;;;;;;;;;;;;;;6201164;23;19920;-96
2022/01/17 15:34:37;;;;;;;;;;;;;;;;;;6203644;23;20259;-96
2022/01/17 15:37:07;;;;;;;;;;;;;;;;;;6204283;23;19979;-96
2022/01/17 15:39:34;;;;;;;;;;;;;;;;;;6190256;23;19968;-96
2022/01/17 15:42:04;;;;;;;;;;;;;;;;;;6197472;23;19924;-96
2022/01/17 15:52:15;;;;;;;;;;;;;;;;;;6170091;23;19924;-96
2022/01/17 15:54:42;;;;;;;;;;;;;;;;;;6162522;23;19987;-96
2022/01/17 16:18:16;;;;;;;;;;;;;;;;;;6212091;23;19904;-96
2022/01/17 16:25:53;;;;;;;;;;;;;;;;;;6159799;23;19932;-96
2022/01/17 16:28:21;;;;;;;;;;;;;;;;;;6164685;23;19925;-96
2022/01/17 16:30:47;;;;;;;;;;;;;;;;;;6166617;23;19999;-96
2022/01/17 16:33:14;;;;;;;;;;;;;;;;;;6166924;23;19931;-96
2022/01/17 16:35:40;;;;;;;;;;;;;;;;;;6168747;23;19925;-96
2022/01/17 16:38:06;;;;;;;;;;;;;;;;;;6167289;23;19921;-96
2022/01/17 16:40:33;;;;;;;;;;;;;;;;;;6171295;23;20374;-96
2022/01/17 16:42:59;;;;;;;;;;;;;;;;;;6169677;23;19920;-96
2022/01/17 16:45:26;;;;;;;;;;;;;;;;;;6170552;23;19931;-96
2022/01/17 16:47:53;;;;;;;;;;;;;;;;;;6172224;23;20000;-96
2022/01/17 16:50:23;;;;;;;;;;;;;;;;;;6171747;23;20321;-96
2022/01/17 16:52:49;;;;;;;;;;;;;;;;;;6165362;23;19928;-96
2022/01/17 16:55:15;;;;;;;;;;;;;;;;;;6167495;23;19924;-96
2022/01/17 16:57:42;;;;;;;;;;;;;;;;;;6170094;23;19920;-96
2022/01/17 17:00:13;;;;;;;;;;;;;;;;;;6175471;23;19921;-96
2022/01/17 17:02:41;;;;;;;;;;;;;;;;;;6174293;23;19943;-97
2022/01/17 17:05:08;;;;;;;;;;;;;;;;;;6174037;23;19921;-96
2022/01/17 17:07:34;;;;;;;;;;;;;;;;;;6177014;23;19935;-96
2022/01/17 17:10:01;;;;;;;;;;;;;;;;;;6174396;23;19937;-96
2022/01/17 17:12:27;;;;;;;;;;;;;;;;;;6176446;23;19981;-96
2022/01/17 17:14:53;;;;;;;;;;;;;;;;;;6171492;23;19940;-96
2022/01/17 17:17:20;;;;;;;;;;;;;;;;;;6165775;23;19931;-96
2022/01/17 17:19:46;;;;;;;;;;;;;;;;;;6166561;23;19920;-96
2022/01/17 17:24:55;;;;;;;;;;;;;;;;;;6270084;23;19933;-96
2022/01/17 17:27:22;;;;;;;;;;;;;;;;;;6263873;23;19958;-96
2022/01/17 17:29:48;;;;;;;;;;;;;;;;;;6256303;23;19926;-96
2022/01/17 17:32:14;;;;;;;;;;;;;;;;;;6254668;23;19919;-96
2022/01/17 17:34:41;;;;;;;;;;;;;;;;;;6254938;23;19919;-95
2022/01/17 17:37:07;;;;;;;;;;;;;;;;;;6254258;23;19920;-95
2022/01/17 17:39:33;;;;;;;;;;;;;;;;;;6254704;23;19954;-95
2022/01/17 17:41:59;;;;;;;;;;;;;;;;;;6254518;23;19943;-94
2022/01/17 17:44:26;;;;;;;;;;;;;;;;;;6255025;23;19943;-95
2022/01/17 17:46:52;;;;;;;;;;;;;;;;;;6255473;23;19930;-95
2022/01/17 17:49:18;;;;;;;;;;;;;;;;;;6254725;23;19920;-96
2022/01/17 17:51:45;;;;;;;;;;;;;;;;;;6255616;23;19919;-96
2022/01/17 17:54:12;;;;;;;;;;;;;;;;;;6252064;23;19923;-96
2022/01/17 17:56:41;;;;;;;;;;;;;;;;;;6224521;23;20375;-96
2022/01/17 18:01:50;;;;;;;;;;;;;;;;;;6270107;23;19919;-96
2022/01/17 18:04:25;;;;;;;;;;;;;;;;;;6271425;23;19926;-96
2022/01/17 18:06:52;;;;;;;;;;;;;;;;;;6271439;23;19989;-96
2022/01/17 18:09:19;;;;;;;;;;;;;;;;;;6257251;23;19943;-96
2022/01/17 18:11:47;;;;;;;;;;;;;;;;;;6258377;23;19972;-96
2022/01/17 18:14:13;;;;;;;;;;;;;;;;;;6256618;23;19931;-96
2022/01/17 18:16:41;;;;;;;;;;;;;;;;;;6266391;23;19935;-97